Time;durP1;ratioP1;P1;durP2;ratioP2;P2;SDS_P1;SDS_P2;PMS_P1;PMS_P2;Temp;Humidity;BMP_temperature;BMP_pressure;BME280_temperature;BME280_humidity;BME280_pressure;Samples;Min_cycle;Max_cycle;Signal;HPM_P1;HPM_P2
2023/05/25 00:00:52;;;;;;;10.48;5.90;;;10.20;99.90;;;;;;5068312;28;20052;-74
2023/05/25 00:03:19;;;;;;;10.05;5.78;;;10.20;99.90;;;;;;5049828;28;21210;-74
2023/05/25 00:05:44;;;;;;;11.80;5.05;;;10.20;99.90;;;;;;5041921;28;20063;-74
2023/05/25 00:08:10;;;;;;;12.70;6.30;;;10.20;99.90;;;;;;5047728;28;20045;-74
2023/05/25 00:10:36;;;;;;;10.02;5.93;;;10.20;99.90;;;;;;5054914;28;20045;-74
2023/05/25 00:13:01;;;;;;;11.23;5.25;;;10.20;99.90;;;;;;5044389;28;20087;-74
2023/05/25 00:15:30;;;;;;;11.63;5.70;;;10.20;99.90;;;;;;5040812;28;20397;-74
2023/05/25 00:17:55;;;;;;;10.70;4.93;;;10.10;99.90;;;;;;5063837;28;20054;-74
2023/05/25 00:20:22;;;;;;;9.68;5.80;;;10.10;99.90;;;;;;5050482;28;20044;-74
2023/05/25 00:22:48;;;;;;;9.82;5.70;;;10.10;99.90;;;;;;5052653;28;20515;-73
2023/05/25 00:25:13;;;;;;;11.27;6.00;;;10.10;99.90;;;;;;5034564;28;20045;-75
2023/05/25 00:27:39;;;;;;;10.55;5.43;;;10.10;99.90;;;;;;5058113;28;20438;-74
2023/05/25 00:30:08;;;;;;;12.27;5.65;;;10.00;99.90;;;;;;5059255;28;20039;-74
2023/05/25 00:32:34;;;;;;;11.70;6.00;;;10.00;99.90;;;;;;5065041;28;20127;-74
2023/05/25 00:35:00;;;;;;;10.60;5.25;;;10.00;99.90;;;;;;5052566;28;20402;-73
2023/05/25 00:37:29;;;;;;;11.25;6.43;;;10.00;99.90;;;;;;5040064;28;20045;-74
2023/05/25 00:39:55;;;;;;;12.30;7.00;;;10.00;99.90;;;;;;5039843;28;20187;-73
2023/05/25 00:42:22;;;;;;;12.68;5.88;;;10.10;99.90;;;;;;5048989;28;20504;-74
2023/05/25 00:44:47;;;;;;;14.57;7.68;;;10.10;99.90;;;;;;5045768;28;20053;-73
2023/05/25 00:47:15;;;;;;;11.20;6.00;;;10.10;99.90;;;;;;5064410;28;20052;-74
2023/05/25 00:49:41;;;;;;;13.55;7.05;;;10.20;99.90;;;;;;5058314;28;20118;-73
2023/05/25 00:52:07;;;;;;;12.63;6.40;;;10.20;99.90;;;;;;5057334;28;20054;-72
2023/05/25 00:54:34;;;;;;;14.32;6.85;;;10.20;99.90;;;;;;5051410;28;20076;-74
2023/05/25 00:57:04;;;;;;;11.63;6.55;;;10.20;99.90;;;;;;5051666;28;20055;-75
2023/05/25 00:59:45;;;;;;;12.32;5.72;;;10.10;99.90;;;;;;5043547;28;20057;-74
2023/05/25 01:02:14;;;;;;;14.60;6.95;;;10.20;99.90;;;;;;5057416;28;21657;-74
2023/05/25 01:04:44;;;;;;;18.63;6.75;;;10.20;99.90;;;;;;5062107;28;20415;-74
2023/05/25 01:07:12;;;;;;;11.85;7.07;;;10.20;99.90;;;;;;5065117;28;20093;-74
2023/05/25 01:09:40;;;;;;;12.50;6.07;;;10.20;99.90;;;;;;5043849;28;20040;-73
2023/05/25 01:12:08;;;;;;;12.00;6.65;;;10.10;99.90;;;;;;5038006;28;20051;-74
2023/05/25 01:14:33;;;;;;;;;;;10.10;99.90;;;;;;5049795;28;20040;-74
2023/05/25 01:16:59;;;;;;;15.93;7.60;;;10.00;99.90;;;;;;5046396;28;19924;-74
2023/05/25 01:19:25;;;;;;;13.48;6.10;;;10.00;99.90;;;;;;5067551;28;20040;-73
2023/05/25 01:22:11;;;;;;;13.05;7.03;;;10.00;99.90;;;;;;5057888;28;20075;-74
2023/05/25 01:24:51;;;;;;;11.27;5.85;;;10.00;99.90;;;;;;5058112;28;20094;-73
2023/05/25 01:27:31;;;;;;;11.07;6.65;;;9.90;99.90;;;;;;5056016;28;20059;-73
2023/05/25 01:30:02;;;;;;;12.70;5.97;;;9.90;99.90;;;;;;5064219;28;20083;-74
2023/05/25 01:32:31;;;;;;;12.18;6.65;;;9.90;99.90;;;;;;5059457;28;20040;-73
2023/05/25 01:34:58;;;;;;;10.98;5.45;;;9.90;99.90;;;;;;5046373;28;22086;-73
2023/05/25 01:37:27;;;;;;;;;;;9.70;99.90;;;;;;5051517;28;20045;-73
2023/05/25 01:39:52;;;;;;;11.82;6.28;;;9.70;99.90;;;;;;5045569;28;19951;-74
2023/05/25 01:42:18;;;;;;;13.15;5.75;;;9.60;99.90;;;;;;5061428;28;20140;-75
2023/05/25 01:44:44;;;;;;;12.85;6.93;;;9.60;99.90;;;;;;5060956;28;20052;-74
2023/05/25 01:47:30;;;;;;;12.27;6.00;;;9.50;99.90;;;;;;5031816;28;20045;-74
2023/05/25 01:50:08;;;;;;;12.77;6.60;;;9.60;99.90;;;;;;5058535;28;20068;-74
2023/05/25 01:52:49;;;;;;;14.25;5.93;;;9.50;99.90;;;;;;5053690;28;20049;-74
2023/05/25 01:55:17;;;;;;;12.95;7.13;;;9.50;99.90;;;;;;5057363;28;20124;-74
2023/05/25 01:57:49;;;;;;;14.48;6.35;;;9.50;99.90;;;;;;5043387;28;20081;-73
2023/05/25 02:00:18;;;;;;;13.98;6.97;;;9.40;99.90;;;;;;5059222;28;20061;-74
2023/05/25 02:02:45;;;;;;;14.32;7.50;;;9.40;99.90;;;;;;5056826;28;20039;-75
2023/05/25 02:05:12;;;;;;;14.52;5.85;;;9.40;99.90;;;;;;5054172;28;20094;-76
2023/05/25 02:07:38;;;;;;;11.27;5.63;;;9.40;99.90;;;;;;5047978;28;20052;-74
2023/05/25 02:10:04;;;;;;;13.85;5.70;;;9.40;99.90;;;;;;5037312;28;20045;-75
2023/05/25 02:12:29;;;;;;;13.25;6.85;;;9.40;99.90;;;;;;5034114;28;20120;-75
2023/05/25 02:14:55;;;;;;;11.90;7.18;;;9.30;99.90;;;;;;5054912;28;20109;-75
2023/05/25 02:17:21;;;;;;;14.50;6.25;;;9.30;99.90;;;;;;5033391;28;20504;-75
2023/05/25 02:19:48;;;;;;;13.32;6.20;;;9.30;99.90;;;;;;5041638;28;20052;-76
2023/05/25 02:22:15;;;;;;;8.98;5.70;;;9.20;99.90;;;;;;5040510;28;20491;-75
2023/05/25 02:24:41;;;;;;;12.18;6.88;;;9.30;99.90;;;;;;5053613;28;20045;-75
2023/05/25 02:27:06;;;;;;;11.63;6.85;;;9.20;99.90;;;;;;5050647;28;20047;-75
2023/05/25 02:29:32;;;;;;;12.90;5.88;;;9.20;99.90;;;;;;5063179;28;20043;-75
2023/05/25 02:31:58;;;;;;;8.27;5.70;;;9.20;99.90;;;;;;5071682;28;20048;-76
2023/05/25 02:34:23;;;;;;;13.18;6.20;;;9.20;99.90;;;;;;5059533;28;20062;-76
2023/05/25 02:36:49;;;;;;;11.05;6.70;;;9.10;99.90;;;;;;5068555;28;20129;-75
2023/05/25 02:39:15;;;;;;;8.25;5.15;;;9.10;99.90;;;;;;5049783;28;20137;-75
2023/05/25 02:41:41;;;;;;;12.70;5.25;;;9.10;99.90;;;;;;5059373;28;20165;-75
2023/05/25 02:44:07;;;;;;;13.15;6.75;;;9.00;99.90;;;;;;5052087;28;20494;-76
2023/05/25 02:46:33;;;;;;;11.43;5.60;;;9.00;99.90;;;;;;5055500;28;20236;-76
2023/05/25 02:48:59;;;;;;;11.70;5.90;;;9.00;99.90;;;;;;5056261;28;20194;-74
2023/05/25 02:51:25;;;;;;;10.20;5.70;;;9.00;99.90;;;;;;5054204;28;20041;-75
2023/05/25 02:53:51;;;;;;;10.20;5.13;;;9.00;99.90;;;;;;5051020;28;20044;-75
2023/05/25 02:56:17;;;;;;;9.55;5.97;;;8.90;99.90;;;;;;5052825;28;20047;-75
2023/05/25 02:58:42;;;;;;;10.27;5.70;;;8.80;99.90;;;;;;5058956;28;20045;-75
2023/05/25 03:01:16;;;;;;;14.20;6.80;;;8.90;99.90;;;;;;5069557;28;20055;-75
2023/05/25 03:03:46;;;;;;;12.98;6.18;;;8.90;99.90;;;;;;5048999;28;20053;-72
2023/05/25 03:06:13;;;;;;;11.23;6.40;;;8.80;99.90;;;;;;5058640;28;20052;-73
2023/05/25 03:08:39;;;;;;;10.38;6.05;;;8.80;99.90;;;;;;5069599;28;20058;-74
2023/05/25 03:11:05;;;;;;;12.93;7.63;;;8.80;99.90;;;;;;5043423;28;20063;-73
2023/05/25 03:13:31;;;;;;;11.13;6.93;;;8.80;99.90;;;;;;5054098;28;20093;-73
2023/05/25 03:15:56;;;;;;;13.15;7.07;;;8.80;99.90;;;;;;5045026;28;20056;-73
2023/05/25 03:18:22;;;;;;;12.68;7.00;;;8.70;99.90;;;;;;5042324;28;20507;-72
2023/05/25 03:20:47;;;;;;;12.77;7.82;;;8.70;99.90;;;;;;5051289;28;20063;-73
2023/05/25 03:23:13;;;;;;;12.60;6.47;;;8.80;99.90;;;;;;5052694;28;20064;-76
2023/05/25 03:25:39;;;;;;;12.25;7.07;;;8.70;99.90;;;;;;5042650;28;21611;-74
2023/05/25 03:28:04;;;;;;;9.13;5.45;;;8.70;99.90;;;;;;5059783;28;20086;-74
2023/05/25 03:30:30;;;;;;;12.20;5.82;;;8.70;99.90;;;;;;5055970;28;20048;-72
2023/05/25 03:32:56;;;;;;;11.73;6.20;;;8.70;99.90;;;;;;5061525;28;20061;-74
2023/05/25 03:35:22;;;;;;;13.13;6.55;;;8.70;99.90;;;;;;5056619;28;20391;-75
2023/05/25 03:37:47;;;;;;;11.05;7.57;;;8.70;99.90;;;;;;5047492;28;20122;-72
2023/05/25 03:40:13;;;;;;;14.23;6.32;;;8.70;99.90;;;;;;5060653;28;20048;-73
2023/05/25 03:42:39;;;;;;;10.05;5.60;;;8.70;99.90;;;;;;5063260;28;20397;-74
2023/05/25 03:45:07;;;;;;;9.32;5.57;;;8.70;99.90;;;;;;5060954;28;20105;-72
2023/05/25 03:47:35;;;;;;;11.00;5.15;;;8.70;99.90;;;;;;5045961;28;20048;-73
2023/05/25 03:50:01;;;;;;;10.80;6.55;;;8.70;99.90;;;;;;5054280;28;20087;-72
2023/05/25 03:52:27;;;;;;;12.20;5.60;;;8.80;99.90;;;;;;5059893;28;21054;-72
2023/05/25 03:54:53;;;;;;;8.48;6.00;;;8.80;99.90;;;;;;5054102;28;20049;-72
2023/05/25 03:57:18;;;;;;;9.75;5.40;;;8.80;99.90;;;;;;5048196;28;20064;-73
2023/05/25 03:59:44;;;;;;;9.07;5.35;;;8.80;99.90;;;;;;5062760;28;20492;-72
2023/05/25 04:02:10;;;;;;;7.53;4.43;;;8.90;99.90;;;;;;5049092;28;20471;-72
2023/05/25 04:04:40;;;;;;;8.05;5.50;;;8.80;99.90;;;;;;5062195;28;20131;-73
2023/05/25 04:07:06;;;;;;;8.10;4.35;;;8.90;99.90;;;;;;5049233;28;20116;-74
2023/05/25 04:09:32;;;;;;;8.10;4.60;;;8.90;99.90;;;;;;5046147;28;20044;-73
2023/05/25 04:11:57;;;;;;;8.45;4.80;;;8.90;99.90;;;;;;5066319;28;20050;-73
2023/05/25 04:14:23;;;;;;;10.00;5.93;;;8.90;99.90;;;;;;5053754;28;20106;-72
2023/05/25 04:16:49;;;;;;;9.63;5.95;;;8.80;99.90;;;;;;5053575;28;20048;-73
2023/05/25 04:19:14;;;;;;;9.75;4.65;;;8.90;99.90;;;;;;5064171;28;20051;-75
2023/05/25 04:21:40;;;;;;;8.45;5.80;;;8.90;99.90;;;;;;5049883;28;20040;-74
2023/05/25 04:24:06;;;;;;;8.90;4.88;;;8.90;99.90;;;;;;5046350;28;20043;-72
2023/05/25 04:26:32;;;;;;;10.20;5.38;;;8.90;99.90;;;;;;5039933;28;20107;-75
2023/05/25 04:29:00;;;;;;;11.50;6.35;;;8.90;99.90;;;;;;5050213;28;20416;-71
2023/05/25 04:31:27;;;;;;;10.63;6.38;;;9.00;99.90;;;;;;5051900;28;20055;-79
2023/05/25 04:33:54;;;;;;;11.10;6.95;;;9.00;99.90;;;;;;5053731;28;21275;-75
2023/05/25 04:36:21;;;;;;;15.60;7.28;;;9.10;99.90;;;;;;5050082;28;20069;-74
2023/05/25 04:38:47;;;;;;;12.45;7.47;;;9.20;99.90;;;;;;5045902;28;20098;-73
2023/05/25 04:41:16;;;;;;;15.52;7.28;;;9.30;99.90;;;;;;5054597;28;20036;-76
2023/05/25 04:43:44;;;;;;;15.63;8.25;;;9.30;99.90;;;;;;5050522;28;20055;-73
2023/05/25 04:46:10;;;;;;;16.45;7.90;;;9.30;99.90;;;;;;5049782;28;20063;-74
2023/05/25 04:48:37;;;;;;;14.52;7.90;;;9.40;99.90;;;;;;5053629;28;20041;-73
2023/05/25 04:51:03;;;;;;;17.17;7.65;;;9.60;99.90;;;;;;5056083;28;21676;-73
2023/05/25 04:53:29;;;;;;;16.95;9.77;;;9.60;99.90;;;;;;5066595;28;20143;-74
2023/05/25 04:55:55;;;;;;;18.30;8.13;;;9.70;99.90;;;;;;5053731;28;22421;-74
2023/05/25 04:58:24;;;;;;;15.05;7.88;;;9.80;99.90;;;;;;5055147;28;20040;-73
2023/05/25 05:00:49;;;;;;;20.73;10.52;;;9.90;99.90;;;;;;5056947;28;20040;-74
2023/05/25 05:03:15;;;;;;;19.38;8.80;;;9.90;99.90;;;;;;5041689;28;20679;-74
2023/05/25 05:05:43;;;;;;;17.20;8.43;;;10.00;99.90;;;;;;5065561;28;20427;-76
2023/05/25 05:08:08;;;;;;;17.17;9.10;;;10.10;99.90;;;;;;5055861;28;20048;-72
2023/05/25 05:10:34;;;;;;;16.58;8.60;;;10.10;99.90;;;;;;5045013;28;20037;-77
2023/05/25 05:13:00;;;;;;;16.75;9.13;;;10.10;99.90;;;;;;5053168;28;20032;-72
2023/05/25 05:15:25;;;;;;;19.02;10.35;;;10.20;99.90;;;;;;5044078;28;20443;-73
2023/05/25 05:17:51;;;;;;;21.92;11.00;;;10.30;99.90;;;;;;5054036;28;20078;-74
2023/05/25 05:20:17;;;;;;;25.23;11.13;;;10.30;99.90;;;;;;5049567;28;20052;-73
2023/05/25 05:22:42;;;;;;;26.30;11.40;;;10.40;99.90;;;;;;5041353;28;20049;-73
2023/05/25 05:25:08;;;;;;;24.27;11.45;;;10.40;99.90;;;;;;5061767;28;20086;-73
2023/05/25 05:27:34;;;;;;;19.25;10.68;;;10.50;99.90;;;;;;5036247;28;20036;-75
2023/05/25 05:30:00;;;;;;;22.00;11.70;;;10.60;99.90;;;;;;5043614;28;20101;-72
2023/05/25 05:32:25;;;;;;;27.58;12.52;;;10.70;99.90;;;;;;5039393;28;20068;-72
2023/05/25 05:34:51;;;;;;;26.98;12.10;;;10.70;99.90;;;;;;5055922;28;20113;-71
2023/05/25 05:37:17;;;;;;;27.08;14.05;;;10.80;99.90;;;;;;5062257;28;20384;-71
2023/05/25 05:39:42;;;;;;;18.50;11.05;;;10.90;99.90;;;;;;5056062;28;20048;-71
2023/05/25 05:42:08;;;;;;;24.70;13.32;;;11.00;99.90;;;;;;5048555;28;20521;-72
2023/05/25 05:44:34;;;;;;;21.42;10.80;;;11.10;99.90;;;;;;5053754;28;20093;-70
2023/05/25 05:47:00;;;;;;;27.85;12.60;;;11.20;99.90;;;;;;5053356;28;20138;-74
2023/05/25 05:49:27;;;;;;;23.20;12.00;;;11.20;99.90;;;;;;5054451;28;20075;-74
2023/05/25 05:51:53;;;;;;;20.73;12.17;;;11.30;99.90;;;;;;5056244;28;20052;-73
2023/05/25 05:54:18;;;;;;;22.08;11.90;;;11.40;99.90;;;;;;5064862;28;20109;-73
2023/05/25 05:56:44;;;;;;;21.70;11.10;;;11.50;99.90;;;;;;5056556;28;20048;-74
2023/05/25 05:59:10;;;;;;;21.92;12.73;;;11.50;99.90;;;;;;5059995;28;20063;-73
2023/05/25 06:01:36;;;;;;;19.95;11.23;;;11.60;99.90;;;;;;5055113;28;20048;-73
2023/05/25 06:04:04;;;;;;;23.98;12.30;;;11.60;99.90;;;;;;5056570;28;20053;-74
2023/05/25 06:06:31;;;;;;;21.23;11.50;;;11.70;99.90;;;;;;5051171;28;20572;-73
2023/05/25 06:08:57;;;;;;;23.88;11.13;;;11.80;99.90;;;;;;5054067;28;20101;-73
2023/05/25 06:11:23;;;;;;;22.08;10.60;;;11.90;99.90;;;;;;5077213;28;20052;-73
2023/05/25 06:13:48;;;;;;;19.85;10.90;;;11.90;99.90;;;;;;5055714;28;20048;-73
2023/05/25 06:16:14;;;;;;;20.00;10.35;;;12.00;99.90;;;;;;5054069;28;20055;-72
2023/05/25 06:18:40;;;;;;;17.98;10.75;;;12.10;99.90;;;;;;5051738;28;20467;-74
2023/05/25 06:21:06;;;;;;;22.15;10.45;;;12.20;99.90;;;;;;5072061;28;20044;-74
2023/05/25 06:23:31;;;;;;;16.20;9.05;;;12.30;99.90;;;;;;5072862;28;20083;-73
2023/05/25 06:26:01;;;;;;;19.60;8.73;;;12.40;99.90;;;;;;5054109;28;20097;-74
2023/05/25 06:28:27;;;;;;;16.27;8.13;;;12.40;99.90;;;;;;5063202;28;20055;-74
2023/05/25 06:30:52;;;;;;;14.35;8.13;;;12.50;99.90;;;;;;5067652;28;20051;-74
2023/05/25 06:33:18;;;;;;;16.92;9.32;;;12.50;99.90;;;;;;5048798;28;20055;-73
2023/05/25 06:35:44;;;;;;;18.65;8.88;;;12.60;99.90;;;;;;5052117;28;20427;-74
2023/05/25 06:38:11;;;;;;;17.70;8.60;;;12.70;99.90;;;;;;5061554;28;20072;-74
2023/05/25 06:40:36;;;;;;;16.95;8.88;;;12.70;99.90;;;;;;5056267;28;20088;-73
2023/05/25 06:43:02;;;;;;;19.73;8.93;;;12.70;99.90;;;;;;5062571;28;20132;-74
2023/05/25 06:45:28;;;;;;;16.48;8.48;;;12.70;99.90;;;;;;5066926;28;21092;-74
2023/05/25 06:47:53;;;;;;;15.35;6.72;;;12.80;99.90;;;;;;5055019;28;20041;-74
2023/05/25 06:50:19;;;;;;;16.88;6.97;;;12.80;99.90;;;;;;5054027;28;20070;-74
2023/05/25 06:52:45;;;;;;;14.70;6.07;;;12.90;99.90;;;;;;5056375;28;20048;-75
2023/05/25 06:55:11;;;;;;;16.77;6.78;;;13.00;99.90;;;;;;5052356;28;20538;-76
2023/05/25 06:57:37;;;;;;;18.15;7.13;;;13.10;99.90;;;;;;5058390;28;20040;-75
2023/05/25 07:00:10;;;;;;;14.10;6.40;;;13.10;99.90;;;;;;5067156;28;20116;-74
2023/05/25 07:02:36;;;;;;;14.57;5.50;;;13.10;99.90;;;;;;5049385;28;20097;-76
2023/05/25 07:05:04;;;;;;;18.63;6.60;;;13.10;99.90;;;;;;5050502;28;20649;-78
2023/05/25 07:07:30;;;;;;;17.15;6.97;;;13.10;99.90;;;;;;5057824;28;20391;-77
2023/05/25 07:09:56;;;;;;;14.68;6.20;;;13.00;99.90;;;;;;5060274;28;20048;-74
2023/05/25 07:12:22;;;;;;;18.52;6.80;;;13.00;99.90;;;;;;5043771;28;20553;-74
2023/05/25 07:14:47;;;;;;;17.52;5.90;;;13.00;99.90;;;;;;5064097;28;20040;-73
2023/05/25 07:17:16;;;;;;;13.63;5.30;;;13.10;99.90;;;;;;5044807;28;20037;-74
2023/05/25 07:19:42;;;;;;;13.52;5.05;;;13.20;99.90;;;;;;5049107;28;20045;-75
2023/05/25 07:22:11;;;;;;;14.68;5.30;;;13.30;99.90;;;;;;5040645;28;20048;-75
2023/05/25 07:24:37;;;;;;;17.52;6.03;;;13.50;99.90;;;;;;5050531;28;20353;-75
2023/05/25 07:27:03;;;;;;;16.63;6.45;;;13.60;99.90;;;;;;5060213;28;21195;-74
2023/05/25 07:29:28;;;;;;;18.15;6.05;;;13.70;99.90;;;;;;5047080;28;20067;-73
2023/05/25 07:31:54;;;;;;;14.07;5.72;;;13.80;99.90;;;;;;5071481;28;20050;-70
2023/05/25 07:34:20;;;;;;;15.00;5.20;;;14.00;99.90;;;;;;5052936;28;20033;-73
2023/05/25 07:36:46;;;;;;;14.63;5.15;;;14.10;99.90;;;;;;5050400;28;21075;-73
2023/05/25 07:39:12;;;;;;;15.85;5.40;;;14.20;99.90;;;;;;5038912;28;20463;-76
2023/05/25 07:41:38;;;;;;;17.85;5.82;;;14.20;99.90;;;;;;5050624;28;20036;-74
2023/05/25 07:44:04;;;;;;;13.68;5.25;;;14.30;99.90;;;;;;5046340;28;20064;-73
2023/05/25 07:46:29;;;;;;;16.17;5.57;;;14.30;99.90;;;;;;5057044;28;20053;-74
2023/05/25 07:48:57;;;;;;;13.85;4.82;;;14.20;99.90;;;;;;5064812;28;20049;-74
2023/05/25 07:51:25;;;;;;;14.73;4.50;;;14.20;99.90;;;;;;5038393;28;20080;-74
2023/05/25 07:53:52;;;;;;;16.42;4.53;;;14.20;99.90;;;;;;5054425;28;20044;-74
2023/05/25 07:56:17;;;;;;;15.45;4.57;;;14.40;99.90;;;;;;5044702;28;20045;-74
2023/05/25 07:58:43;;;;;;;17.02;4.53;;;14.50;99.90;;;;;;5055776;28;20561;-74
2023/05/25 08:01:09;;;;;;;14.90;4.03;;;14.50;99.90;;;;;;5041931;28;20049;-73
2023/05/25 08:03:35;;;;;;;16.25;4.85;;;14.60;99.90;;;;;;5039634;28;20558;-73
2023/05/25 08:06:00;;;;;;;15.05;4.88;;;14.70;99.90;;;;;;5036108;28;20111;-72
2023/05/25 08:08:26;;;;;;;13.15;4.20;;;14.70;99.90;;;;;;5043422;28;20048;-73
2023/05/25 08:10:51;;;;;;;17.63;4.68;;;14.80;99.90;;;;;;5058281;28;20055;-72
2023/05/25 08:13:17;;;;;;;17.70;4.68;;;14.80;99.90;;;;;;5043282;28;20033;-71
2023/05/25 08:15:43;;;;;;;13.55;4.22;;;14.80;99.90;;;;;;5056131;28;20049;-72
2023/05/25 08:18:09;;;;;;;18.38;4.80;;;14.70;99.90;;;;;;5056371;28;20049;-72
2023/05/25 08:20:35;;;;;;;16.83;5.20;;;14.70;99.90;;;;;;5035511;28;20045;-71
2023/05/25 08:23:01;;;;;;;22.95;5.95;;;14.70;99.90;;;;;;5047519;28;20499;-72
2023/05/25 08:25:26;;;;;;;16.65;5.28;;;14.60;99.90;;;;;;5040703;28;20052;-71
2023/05/25 08:27:52;;;;;;;15.73;4.35;;;14.60;99.90;;;;;;5057818;28;20087;-71
2023/05/25 08:30:18;;;;;;;15.40;4.22;;;14.60;99.90;;;;;;5046705;28;20148;-74
2023/05/25 08:32:44;;;;;;;16.25;4.43;;;14.60;99.90;;;;;;5044208;28;20083;-71
2023/05/25 08:35:09;;;;;;;15.20;4.65;;;14.60;99.90;;;;;;5046706;28;20286;-71
2023/05/25 08:37:35;;;;;;;17.27;4.72;;;14.70;99.90;;;;;;5055123;28;20037;-71
2023/05/25 08:40:01;;;;;;;17.17;5.18;;;14.70;99.90;;;;;;5045117;28;20051;-70
2023/05/25 08:42:27;;;;;;;17.73;5.03;;;14.70;99.90;;;;;;5062282;28;21266;-72
2023/05/25 08:44:53;;;;;;;17.38;4.88;;;14.80;99.90;;;;;;5064642;28;20067;-72
2023/05/25 08:47:21;;;;;;;16.67;5.00;;;14.80;99.90;;;;;;5039655;28;20052;-72
2023/05/25 08:49:49;;;;;;;16.98;5.22;;;14.80;99.90;;;;;;5056774;28;20059;-71
2023/05/25 08:52:20;;;;;;;14.63;4.32;;;14.80;99.90;;;;;;5071319;28;20079;-75
2023/05/25 08:54:49;;;;;;;17.60;4.80;;;14.80;99.90;;;;;;5050552;28;20086;-73
2023/05/25 08:57:22;;;;;;;16.75;5.07;;;14.90;99.90;;;;;;5049098;28;20068;-72
2023/05/25 09:00:09;;;;;;;19.83;5.32;;;14.90;99.90;;;;;;5043353;28;20087;-72
2023/05/25 09:03:01;;;;;;;17.50;5.57;;;15.00;99.90;;;;;;5044740;28;20124;-72
2023/05/25 09:05:26;;;;;;;19.35;5.50;;;15.10;99.90;;;;;;5045279;28;20101;-73
2023/05/25 09:07:55;;;;;;;14.98;4.45;;;15.20;99.90;;;;;;5062719;28;20048;-72
2023/05/25 09:10:25;;;;;;;17.55;4.57;;;15.40;99.90;;;;;;5054736;28;20512;-72
2023/05/25 09:12:51;;;;;;;24.58;4.97;;;15.40;99.90;;;;;;5023795;28;20053;-71
2023/05/25 09:15:17;;;;;;;16.30;4.72;;;15.40;99.90;;;;;;5042494;28;20060;-71
2023/05/25 09:17:43;;;;;;;14.80;4.57;;;15.40;99.90;;;;;;5056487;28;21656;-71
2023/05/25 09:20:12;;;;;;;18.55;5.00;;;15.40;99.90;;;;;;5054796;28;20045;-72
2023/05/25 09:22:41;;;;;;;20.23;5.22;;;15.30;99.90;;;;;;5064693;28;20056;-72
2023/05/25 09:25:08;;;;;;;16.98;5.30;;;15.20;99.90;;;;;;5053772;28;20058;-70
2023/05/25 09:27:38;;;;;;;23.17;5.70;;;15.20;99.90;;;;;;5050964;28;20734;-71
2023/05/25 09:30:05;;;;;;;21.25;5.85;;;15.10;99.90;;;;;;5039885;28;20075;-71
2023/05/25 09:32:31;;;;;;;20.90;6.20;;;15.10;99.90;;;;;;5034761;28;20053;-72
2023/05/25 09:35:06;;;;;;;19.33;5.32;;;15.10;99.90;;;;;;5046561;28;20497;-71
2023/05/25 09:37:32;;;;;;;21.88;5.60;;;15.10;99.90;;;;;;5039551;28;20079;-72
2023/05/25 09:39:58;;;;;;;18.63;5.05;;;15.10;99.90;;;;;;5034381;28;20191;-71
2023/05/25 09:42:24;;;;;;;23.00;6.07;;;15.10;99.90;;;;;;5045859;28;20418;-71
2023/05/25 09:44:50;;;;;;;22.52;5.53;;;15.10;99.90;;;;;;5058579;28;20036;-72
2023/05/25 09:47:17;;;;;;;21.27;5.40;;;15.20;99.90;;;;;;5040554;28;20044;-72
2023/05/25 09:49:46;;;;;;;24.50;6.05;;;15.10;99.90;;;;;;5040768;28;20063;-71
2023/05/25 09:52:13;;;;;;;18.70;5.85;;;15.20;99.90;;;;;;5045926;28;20056;-73
2023/05/25 09:54:38;;;;;;;21.02;5.78;;;15.30;99.90;;;;;;5054230;28;20416;-75
2023/05/25 09:57:05;;;;;;;19.55;6.00;;;15.30;99.90;;;;;;5053003;28;20048;-73
2023/05/25 09:59:31;;;;;;;21.55;5.80;;;15.30;99.90;;;;;;5043932;28;20044;-72
2023/05/25 10:01:58;;;;;;;17.90;5.60;;;15.20;99.90;;;;;;5058410;28;20056;-74
2023/05/25 10:04:23;;;;;;;19.35;5.43;;;15.20;99.90;;;;;;5080805;28;20045;-75
2023/05/25 10:06:51;;;;;;;21.45;6.00;;;15.30;99.90;;;;;;5036525;28;20106;-74
2023/05/25 10:09:19;;;;;;;24.35;5.13;;;15.50;99.90;;;;;;5050385;28;20134;-73
2023/05/25 10:11:45;;;;;;;16.15;5.13;;;15.50;99.90;;;;;;5053003;28;20054;-73
2023/05/25 10:14:16;;;;;;;21.23;5.40;;;15.50;99.90;;;;;;5045217;28;20511;-73
2023/05/25 10:16:47;;;;;;;19.73;5.53;;;15.60;99.90;;;;;;5053093;28;22502;-72
2023/05/25 10:19:20;;;;;;;22.63;5.60;;;15.80;99.90;;;;;;5037809;28;20045;-72
2023/05/25 10:21:52;;;;;;;21.50;6.03;;;15.90;99.90;;;;;;5041174;28;20052;-71
2023/05/25 10:24:37;;;;;;;27.27;7.43;;;16.00;99.90;;;;;;5038532;28;20052;-72
2023/05/25 10:27:05;;;;;;;27.83;8.18;;;15.90;99.90;;;;;;5065925;28;20629;-73
2023/05/25 10:29:36;;;;;;;23.52;6.20;;;15.80;99.90;;;;;;5055587;28;20062;-72
2023/05/25 10:32:03;;;;;;;23.38;5.97;;;15.90;99.90;;;;;;5055371;28;20510;-72
2023/05/25 10:34:29;;;;;;;24.38;6.55;;;16.10;99.90;;;;;;5055507;28;20036;-76
2023/05/25 10:36:55;;;;;;;25.40;6.20;;;16.20;99.90;;;;;;5062364;28;20447;-73
2023/05/25 10:39:23;;;;;;;19.77;5.30;;;16.30;99.90;;;;;;5048332;28;20136;-72
2023/05/25 10:41:50;;;;;;;24.90;6.65;;;16.30;99.90;;;;;;5051767;28;20124;-72
2023/05/25 10:44:16;;;;;;;21.42;5.90;;;16.40;99.90;;;;;;5047343;28;20488;-71
2023/05/25 10:46:42;;;;;;;27.30;6.22;;;16.50;99.90;;;;;;5049858;28;20053;-74
2023/05/25 10:49:09;;;;;;;20.30;5.35;;;16.50;99.90;;;;;;5054601;28;20048;-74
2023/05/25 10:51:39;;;;;;;17.13;4.97;;;16.50;99.90;;;;;;5061557;28;20430;-73
2023/05/25 10:54:07;;;;;;;22.95;5.65;;;16.50;99.90;;;;;;5050311;28;20059;-72
2023/05/25 10:56:33;;;;;;;21.20;6.13;;;16.50;99.90;;;;;;5043827;28;20056;-72
2023/05/25 10:58:59;;;;;;;18.65;5.10;;;16.60;99.90;;;;;;5060670;28;20415;-71
2023/05/25 11:01:25;;;;;;;18.33;5.05;;;16.70;99.90;;;;;;5030332;28;20167;-72
2023/05/25 11:03:56;;;;;;;19.30;5.80;;;16.70;99.20;;;;;;5061323;28;20142;-74
2023/05/25 11:06:36;;;;;;;23.73;5.88;;;16.70;98.90;;;;;;5039365;28;20049;-74
2023/05/25 11:09:02;;;;;;;20.10;5.65;;;16.60;99.00;;;;;;5047464;28;20059;-73
2023/05/25 11:11:47;;;;;;;20.10;5.20;;;16.60;98.90;;;;;;5051466;28;20063;-72
2023/05/25 11:14:29;;;;;;;17.42;4.88;;;16.70;98.80;;;;;;5045592;28;20058;-73
2023/05/25 11:17:11;;;;;;;16.17;5.15;;;16.70;98.50;;;;;;5053104;28;20041;-74
2023/05/25 11:19:48;;;;;;;19.58;5.22;;;16.80;97.40;;;;;;5051590;28;20513;-73
2023/05/25 11:22:19;;;;;;;19.52;4.97;;;16.90;97.70;;;;;;5058135;28;20569;-73
2023/05/25 11:24:46;;;;;;;21.15;5.75;;;17.00;97.60;;;;;;5053842;28;20044;-73
2023/05/25 11:27:12;;;;;;;22.20;5.97;;;17.00;97.70;;;;;;5054784;28;20487;-70
2023/05/25 11:29:39;;;;;;;19.63;5.68;;;16.90;97.00;;;;;;5060467;28;20051;-71
2023/05/25 11:32:12;;;;;;;;;;;16.80;97.30;;;;;;5053282;28;20052;-72
2023/05/25 11:34:37;;;;;;;19.27;5.80;;;16.90;97.40;;;;;;5060287;28;19933;-71
2023/05/25 11:37:03;;;;;;;21.25;5.47;;;16.90;97.20;;;;;;5044852;28;20048;-74
2023/05/25 11:39:33;;;;;;;21.30;5.80;;;16.90;97.10;;;;;;5056492;28;20106;-72
2023/05/25 11:42:03;;;;;;;23.70;5.47;;;17.00;97.00;;;;;;5045563;28;20041;-72
2023/05/25 11:44:35;;;;;;;18.48;5.10;;;17.10;97.00;;;;;;5059586;28;20381;-71
2023/05/25 11:47:04;;;;;;;20.80;6.00;;;17.20;97.20;;;;;;5033021;28;20040;-70
2023/05/25 11:49:30;;;;;;;17.77;5.45;;;17.20;96.50;;;;;;5042317;28;21387;-69
2023/05/25 11:51:56;;;;;;;18.98;5.63;;;17.30;97.10;;;;;;5059450;28;20105;-69
2023/05/25 11:54:27;;;;;;;18.43;5.30;;;17.50;96.90;;;;;;5044443;28;20939;-71
2023/05/25 11:56:57;;;;;;;21.73;6.15;;;17.50;96.20;;;;;;5061974;28;20051;-71
2023/05/25 11:59:24;;;;;;;20.08;5.47;;;17.50;96.10;;;;;;5046278;28;20713;-71
2023/05/25 12:02:02;;;;;;;20.60;5.38;;;17.40;95.60;;;;;;5055826;28;20439;-69
2023/05/25 12:04:29;;;;;;;20.77;5.53;;;17.30;95.10;;;;;;5050968;28;20048;-69
2023/05/25 12:07:01;;;;;;;;;;;17.20;95.30;;;;;;5038207;28;20055;-71
2023/05/25 12:09:30;;;;;;;19.60;5.53;;;17.30;95.00;;;;;;5043794;28;19925;-72
2023/05/25 12:11:56;;;;;;;24.63;5.70;;;17.40;95.90;;;;;;5047790;28;21775;-69
2023/05/25 12:14:22;;;;;;;20.13;5.10;;;17.50;96.30;;;;;;5051728;28;20049;-70
2023/05/25 12:16:49;;;;;;;20.40;5.60;;;17.70;96.30;;;;;;5062625;28;20125;-70
2023/05/25 12:19:16;;;;;;;21.65;6.10;;;17.70;95.70;;;;;;5049179;28;20059;-70
2023/05/25 12:21:42;;;;;;;24.47;6.00;;;17.70;95.20;;;;;;5053749;28;20173;-70
2023/05/25 12:24:11;;;;;;;23.10;5.75;;;17.70;95.50;;;;;;5038490;28;20060;-71
2023/05/25 12:26:56;;;;;;;20.45;5.63;;;17.90;96.00;;;;;;5033204;28;20049;-69
2023/05/25 12:29:22;;;;;;;20.05;5.43;;;17.90;95.10;;;;;;5050814;28;20052;-69
2023/05/25 12:31:48;;;;;;;24.95;6.50;;;17.90;94.70;;;;;;5045946;28;20458;-72
2023/05/25 12:34:18;;;;;;;18.77;5.45;;;17.90;94.60;;;;;;5050253;28;20038;-72
2023/05/25 12:36:55;;;;;;;17.40;5.43;;;17.70;94.40;;;;;;5040978;28;20508;-72
2023/05/25 12:39:29;;;;;;;19.58;5.45;;;17.70;94.00;;;;;;5052643;28;20052;-71
2023/05/25 12:42:03;;;;;;;20.17;5.57;;;17.70;94.40;;;;;;5046126;28;20377;-72